Time;durP1;ratioP1;P1;durP2;ratioP2;P2;SDS_P1;SDS_P2;PMS_P1;PMS_P2;Temp;Humidity;BMP_temperature;BMP_pressure;BME280_temperature;BME280_humidity;BME280_pressure;Samples;Min_cycle;Max_cycle;Signal;HPM_P1;HPM_P2
2023/01/17 00:00:53;;;;;;;2.78;1.92;;;;;;;-144.31;100.00;58022.63;5031554;28;20122;-56
2023/01/17 00:11:42;;;;;;;3.92;2.15;;;;;;;-144.31;100.00;58022.63;5033463;28;20042;-58
2023/01/17 00:15:07;;;;;;;2.65;1.92;;;;;;;-144.31;100.00;58022.63;5036981;28;20551;-57
2023/01/17 00:18:31;;;;;;;2.88;1.77;;;;;;;-144.31;100.00;58022.63;5031682;28;20043;-58
2023/01/17 01:34:56;;;;;;;5.85;2.20;;;;;;;-144.31;100.00;58022.63;5034246;28;20051;-56
2023/01/17 01:38:22;;;;;;;3.72;2.05;;;;;;;-144.31;100.00;58022.63;5037719;28;20048;-55
2023/01/17 01:41:47;;;;;;;3.08;2.20;;;;;;;-144.31;100.00;58022.63;5041216;28;20650;-57
2023/01/17 01:45:31;;;;;;;5.43;2.50;;;;;;;-144.31;100.00;58022.63;5037543;28;20049;-57
2023/01/17 01:49:01;;;;;;;2.88;2.05;;;;;;;-144.31;100.00;58022.63;5034409;28;20052;-54
2023/01/17 01:52:33;;;;;;;6.07;2.75;;;;;;;-144.31;100.00;58022.63;5036720;28;20044;-57
2023/01/17 01:56:05;;;;;;;3.13;2.15;;;;;;;-144.31;100.00;58022.63;5034894;28;20080;-56
2023/01/17 01:59:32;;;;;;;6.13;2.60;;;;;;;-144.31;100.00;58022.63;5034697;28;20116;-55
2023/01/17 02:02:58;;;;;;;6.05;2.97;;;;;;;-144.31;100.00;58022.63;5034613;28;20068;-57
2023/01/17 02:06:28;;;;;;;;;;;;;;;-144.31;100.00;58022.63;5036266;28;20573;-55
2023/01/17 02:09:53;;;;;;;5.90;2.50;;;;;;;-144.31;100.00;58022.63;5035219;28;19925;-58
2023/01/17 02:13:19;;;;;;;7.93;2.75;;;;;;;-144.31;100.00;58022.63;5033988;28;20048;-58
2023/01/17 02:17:01;;;;;;;4.80;2.63;;;;;;;-144.31;100.00;58022.63;5033029;28;20048;-55
2023/01/17 02:20:57;;;;;;;4.45;2.97;;;;;;;-144.31;100.00;58022.63;5031940;28;20505;-61
2023/01/17 02:24:59;;;;;;;4.07;2.63;;;;;;;-144.31;100.00;58022.63;5035742;28;20045;-58
2023/01/17 02:28:46;;;;;;;3.92;2.53;;;;;;;-144.31;100.00;58022.63;5027809;28;20041;-56
2023/01/17 02:32:34;;;;;;;3.75;2.38;;;;;;;-144.31;100.00;58022.63;5033906;28;20667;-61
2023/01/17 02:36:04;;;;;;;6.93;2.42;;;;;;;-144.31;100.00;58022.63;5032069;28;20041;-59
2023/01/17 02:39:18;;;;;;;4.50;2.72;;;;;;;-144.31;100.00;58022.63;5042202;28;20055;-57
2023/01/17 02:42:46;;;;;;;5.55;2.30;;;;;;;-144.31;100.00;58022.63;5033289;28;20029;-54
2023/01/17 02:46:16;;;;;;;6.05;2.42;;;;;;;-144.31;100.00;58022.63;5034276;28;20087;-58
2023/01/17 02:49:41;;;;;;;4.60;2.58;;;;;;;-144.31;100.00;58022.63;5034468;28;20045;-58
2023/01/17 02:53:16;;;;;;;3.55;2.40;;;;;;;-144.31;100.00;58022.63;5032233;28;20049;-59
2023/01/17 02:57:08;;;;;;;2.95;2.13;;;;;;;-144.31;100.00;58022.63;5032602;28;20049;-60
2023/01/17 03:01:09;;;;;;;3.97;2.38;;;;;;;-144.31;100.00;58022.63;5031968;28;20525;-57
2023/01/17 03:04:47;;;;;;;3.65;2.38;;;;;;;-144.31;100.00;58022.63;5035198;28;20049;-56
2023/01/17 03:08:14;;;;;;;4.85;2.50;;;;;;;-144.31;100.00;58022.63;5035795;28;20462;-57
2023/01/17 03:11:39;;;;;;;5.15;2.60;;;;;;;-144.31;100.00;58022.63;5032251;28;20028;-58
2023/01/17 03:15:03;;;;;;;4.63;2.70;;;;;;;-144.31;100.00;58022.63;5032078;28;20033;-58
2023/01/17 03:18:29;;;;;;;8.82;3.10;;;;;;;-144.31;100.00;58022.63;5033553;28;20056;-58
2023/01/17 03:21:53;;;;;;;;;;;;;;;-144.31;100.00;58022.63;5033989;28;20453;-58
2023/01/17 03:25:17;;;;;;;3.95;2.38;;;;;;;-144.31;100.00;58022.63;5040536;28;19923;-55
2023/01/17 03:28:40;;;;;;;5.30;2.60;;;;;;;-144.31;100.00;58022.63;5034908;28;20136;-62
2023/01/17 03:32:04;;;;;;;3.50;2.30;;;;;;;-144.31;100.00;58022.63;5032743;28;20112;-61
2023/01/17 03:35:28;;;;;;;5.75;2.20;;;;;;;-144.31;100.00;58022.63;5034685;28;20036;-59
2023/01/17 03:38:52;;;;;;;4.90;2.40;;;;;;;-144.31;100.00;58022.63;5034808;28;20038;-59
2023/01/17 03:42:15;;;;;;;4.35;2.30;;;;;;;-144.31;100.00;58022.63;5034491;28;20025;-58
2023/01/17 03:45:39;;;;;;;3.30;2.13;;;;;;;-144.31;100.00;58022.63;5032729;28;20040;-58
2023/01/17 03:49:03;;;;;;;4.57;2.00;;;;;;;-144.31;100.00;58022.63;5034721;28;20061;-58
2023/01/17 03:52:27;;;;;;;7.78;2.30;;;;;;;-144.31;100.00;58022.63;5034191;28;20478;-58
2023/01/17 03:55:39;;;;;;;6.70;2.58;;;;;;;-144.31;100.00;58022.63;5032924;28;20074;-61
2023/01/17 03:58:32;;;;;;;5.22;2.15;;;;;;;-144.31;100.00;58022.63;5033418;28;20033;-59
2023/01/17 04:01:02;;;;;;;3.33;1.92;;;;;;;-144.31;100.00;58022.63;5036189;28;20509;-59
2023/01/17 04:03:47;;;;;;;3.60;1.92;;;;;;;-144.31;100.00;58022.63;5032571;28;20119;-57
2023/01/17 04:06:32;;;;;;;4.35;1.90;;;;;;;-144.31;100.00;58022.63;5038171;28;20151;-65
2023/01/17 04:09:16;;;;;;;4.25;2.40;;;;;;;-144.31;100.00;58022.63;5033291;28;20072;-60
2023/01/17 04:12:08;;;;;;;4.57;2.00;;;;;;;-144.31;100.00;58022.63;5033599;28;20037;-60
2023/01/17 04:15:03;;;;;;;3.42;1.90;;;;;;;-144.31;100.00;58022.63;5039171;28;20041;-59
2023/01/17 04:17:48;;;;;;;5.55;1.80;;;;;;;-144.31;100.00;58022.63;5032507;28;20037;-57
2023/01/17 04:20:44;;;;;;;8.77;2.50;;;;;;;-144.31;100.00;58022.63;5033847;28;20041;-57
2023/01/17 04:23:36;;;;;;;3.45;2.00;;;;;;;-144.31;100.00;58022.63;5031248;28;20600;-58
2023/01/17 04:26:45;;;;;;;4.70;2.28;;;;;;;-144.31;100.00;58022.63;5035335;28;20045;-57
2023/01/17 04:29:56;;;;;;;3.85;2.28;;;;;;;-144.31;100.00;58022.63;5034595;28;20121;-59
2023/01/17 04:32:48;;;;;;;3.60;1.83;;;;;;;-144.31;100.00;58022.63;5033795;28;20033;-65
2023/01/17 04:35:36;;;;;;;3.47;2.15;;;;;;;-144.31;100.00;58022.63;5032993;28;20250;-60
2023/01/17 04:38:34;;;;;;;3.38;2.05;;;;;;;-144.31;100.00;58022.63;5030378;28;20509;-60
2023/01/17 04:41:23;;;;;;;4.97;2.38;;;;;;;-144.31;100.00;58022.63;5031734;28;20505;-56
2023/01/17 04:44:15;;;;;;;4.00;2.38;;;;;;;-144.31;100.00;58022.63;5033678;28;20071;-60
2023/01/17 04:47:21;;;;;;;6.20;2.53;;;;;;;-144.31;100.00;58022.63;5033324;28;20055;-58
2023/01/17 04:50:11;;;;;;;5.32;2.60;;;;;;;-144.31;100.00;58022.63;5030064;28;20045;-56
2023/01/17 04:53:00;;;;;;;3.88;2.45;;;;;;;-144.31;100.00;58022.63;5034708;28;20025;-56
2023/01/17 04:56:22;;;;;;;3.80;2.60;;;;;;;-144.31;100.00;58022.63;5036866;28;20033;-61
2023/01/17 04:59:41;;;;;;;5.18;2.78;;;;;;;-144.31;100.00;58022.63;5033670;28;20891;-58
2023/01/17 05:02:42;;;;;;;4.25;2.65;;;;;;;-144.31;100.00;58022.63;5040596;28;20398;-57
2023/01/17 05:05:29;;;;;;;3.92;2.10;;;;;;;-144.31;100.00;58022.63;5034515;28;20052;-54
2023/01/17 05:08:18;;;;;;;3.58;2.00;;;;;;;-144.31;100.00;58022.63;5036679;28;20041;-59
2023/01/17 05:11:13;;;;;;;5.95;2.35;;;;;;;-144.31;100.00;58022.63;5036302;28;20087;-59
2023/01/17 05:14:03;;;;;;;3.50;2.20;;;;;;;-144.31;100.00;58022.63;5035796;28;20044;-60
2023/01/17 05:16:56;;;;;;;4.30;2.40;;;;;;;-144.31;100.00;58022.63;5037238;28;20034;-61
2023/01/17 05:20:12;;;;;;;4.60;2.13;;;;;;;-144.31;100.00;58022.63;5034817;28;20575;-61
2023/01/17 05:22:59;;;;;;;3.63;2.22;;;;;;;-144.31;100.00;58022.63;5034366;28;20049;-61
2023/01/17 05:25:45;;;;;;;;;;;;;;;-144.31;100.00;58022.63;5036342;28;20041;-58
2023/01/17 05:28:33;;;;;;;3.73;2.30;;;;;;;-144.31;100.00;58022.63;5036375;28;20019;-62
2023/01/17 05:31:19;;;;;;;4.75;2.67;;;;;;;-144.31;100.00;58022.63;5033862;28;20361;-58
2023/01/17 05:34:17;;;;;;;4.38;2.70;;;;;;;-144.31;100.00;58022.63;5036727;28;20434;-62
2023/01/17 05:37:03;;;;;;;7.43;2.42;;;;;;;-144.31;100.00;58022.63;5036500;28;20029;-58
2023/01/17 05:39:50;;;;;;;5.23;2.40;;;;;;;-144.31;100.00;58022.63;5036392;28;20033;-59
2023/01/17 05:42:36;;;;;;;4.65;2.80;;;;;;;-144.31;100.00;58022.63;5034770;28;20037;-58
2023/01/17 05:45:24;;;;;;;3.60;2.37;;;;;;;-144.31;100.00;58022.63;5034631;28;20040;-64
2023/01/17 05:48:13;;;;;;;3.63;2.45;;;;;;;-144.31;100.00;58022.63;5049616;28;20429;-57
2023/01/17 05:51:00;;;;;;;4.13;2.50;;;;;;;-144.31;100.00;58022.63;5040675;28;20561;-57
2023/01/17 05:53:46;;;;;;;6.20;4.88;;;;;;;-144.31;100.00;58022.63;5036193;28;20067;-60
2023/01/17 05:56:33;;;;;;;4.63;2.70;;;;;;;-144.31;100.00;58022.63;5039807;28;20033;-59
2023/01/17 05:59:20;;;;;;;3.22;2.35;;;;;;;-144.31;100.00;58022.63;5033957;28;20095;-62
2023/01/17 06:02:06;;;;;;;4.80;2.75;;;;;;;-144.31;100.00;58022.63;5029451;28;20048;-64
2023/01/17 06:04:52;;;;;;;7.15;2.60;;;;;;;-144.31;100.00;58022.63;5036177;28;20152;-55
2023/01/17 06:07:38;;;;;;;4.28;2.60;;;;;;;-144.31;100.00;58022.63;5033246;28;20044;-62
2023/01/17 06:10:25;;;;;;;5.68;3.05;;;;;;;-144.31;100.00;58022.63;5033961;28;20745;-61
2023/01/17 06:13:20;;;;;;;5.00;2.90;;;;;;;-144.31;100.00;58022.63;5032531;28;20091;-57
2023/01/17 06:16:04;;;;;;;5.85;3.83;;;;;;;-144.31;100.00;58022.63;5035010;28;20215;-62
2023/01/17 06:18:50;;;;;;;6.47;4.28;;;;;;;-144.31;100.00;58022.63;5035074;28;20128;-60
2023/01/17 06:21:37;;;;;;;8.55;3.35;;;;;;;-144.31;100.00;58022.63;5034509;28;20037;-55
2023/01/17 06:24:23;;;;;;;4.30;3.13;;;;;;;-144.31;100.00;58022.63;5036721;28;20124;-59
2023/01/17 06:27:09;;;;;;;5.25;3.30;;;;;;;-144.31;100.00;58022.63;5034452;28;20121;-60
2023/01/17 06:29:54;;;;;;;7.03;3.80;;;;;;;-144.31;100.00;58022.63;5035723;28;20045;-62
2023/01/17 06:32:35;;;;;;;6.28;3.47;;;;;;;-144.31;100.00;58022.63;5032462;28;20303;-59
2023/01/17 06:35:13;;;;;;;5.75;3.55;;;;;;;-144.31;100.00;58022.63;5034304;28;20064;-58
2023/01/17 06:37:54;;;;;;;5.72;3.05;;;;;;;-144.31;100.00;58022.63;5033598;28;20410;-60
2023/01/17 06:40:38;;;;;;;6.43;2.85;;;;;;;-144.31;100.00;58022.63;5033035;28;20038;-59
2023/01/17 06:43:16;;;;;;;3.80;2.65;;;;;;;-144.31;100.00;58022.63;5032135;28;20041;-60
2023/01/17 06:45:53;;;;;;;6.07;3.50;;;;;;;-144.31;100.00;58022.63;5035152;28;20033;-62
2023/01/17 06:48:42;;;;;;;8.82;4.97;;;;;;;-144.31;100.00;58022.63;5043436;28;20041;-63
2023/01/17 06:51:08;;;;;;;12.13;5.47;;;;;;;-144.31;100.00;58022.63;5037186;28;20124;-59
2023/01/17 06:53:34;;;;;;;10.38;6.20;;;;;;;-144.31;100.00;58022.63;5032044;28;20037;-64
2023/01/17 06:56:00;;;;;;;9.32;5.28;;;;;;;-144.31;100.00;58022.63;5032058;28;20052;-60
2023/01/17 06:58:49;;;;;;;11.70;6.95;;;;;;;-144.31;100.00;58022.63;5034211;28;20040;-61
2023/01/17 07:01:35;;;;;;;12.65;7.50;;;;;;;-144.31;100.00;58022.63;5034140;28;20044;-66
2023/01/17 07:04:20;;;;;;;12.85;7.60;;;;;;;-144.31;100.00;58022.63;5028895;28;20048;-61
2023/01/17 07:06:52;;;;;;;14.95;8.05;;;;;;;-144.31;100.00;58022.63;5031847;28;20044;-59
2023/01/17 07:09:20;;;;;;;11.55;7.57;;;;;;;-144.31;100.00;58022.63;5033581;28;20045;-55
2023/01/17 07:11:47;;;;;;;10.52;7.15;;;;;;;-144.31;100.00;58022.63;5031456;28;20055;-60
2023/01/17 07:14:15;;;;;;;10.30;5.07;;;;;;;-144.31;100.00;58022.63;5032902;28;20124;-57
2023/01/17 07:17:02;;;;;;;10.63;4.93;;;;;;;-144.31;100.00;58022.63;5026021;28;20525;-60
2023/01/17 07:19:48;;;;;;;7.63;4.72;;;;;;;-144.31;100.00;58022.63;5034180;28;20048;-62
2023/01/17 07:22:32;;;;;;;14.93;7.82;;;;;;;-144.31;100.00;58022.63;5031610;28;20199;-59
2023/01/17 07:25:18;;;;;;;14.38;8.32;;;;;;;-144.31;100.00;58022.63;5031229;28;20046;-60
2023/01/17 07:28:04;;;;;;;15.07;8.15;;;;;;;-144.31;100.00;58022.63;5030592;28;20044;-58
2023/01/17 07:30:50;;;;;;;12.60;6.65;;;;;;;-144.31;100.00;58022.63;5032081;28;20041;-58
2023/01/17 07:33:36;;;;;;;12.80;5.72;;;;;;;-144.31;100.00;58022.63;5031810;28;20546;-55
2023/01/17 07:36:22;;;;;;;13.00;6.57;;;;;;;-144.31;100.00;58022.63;5031113;28;20383;-56
2023/01/17 07:39:09;;;;;;;17.90;6.13;;;;;;;-144.31;100.00;58022.63;5032667;28;20048;-59
2023/01/17 07:41:45;;;;;;;16.60;6.43;;;;;;;-144.31;100.00;58022.63;5030030;28;20322;-59
2023/01/17 07:44:15;;;;;;;11.95;6.00;;;;;;;-144.31;100.00;58022.63;5031253;28;20070;-60
2023/01/17 07:46:42;;;;;;;12.85;5.85;;;;;;;-144.31;100.00;58022.63;5031185;28;20485;-59
2023/01/17 07:49:13;;;;;;;14.13;5.72;;;;;;;-144.31;100.00;58022.63;5031211;28;20083;-58
2023/01/17 07:51:54;;;;;;;14.75;6.03;;;;;;;-144.31;100.00;58022.63;5032040;28;20053;-61
2023/01/17 07:54:34;;;;;;;11.88;6.07;;;;;;;-144.31;100.00;58022.63;5033571;28;20045;-62
2023/01/17 07:57:17;;;;;;;16.95;7.03;;;;;;;-144.31;100.00;58022.63;5035442;28;20079;-59
2023/01/17 07:59:43;;;;;;;16.65;7.97;;;;;;;-144.31;100.00;58022.63;5037927;28;20128;-58
2023/01/17 08:02:17;;;;;;;12.07;6.60;;;;;;;-144.31;100.00;58022.63;5031892;28;20051;-57
2023/01/17 08:05:04;;;;;;;18.08;7.57;;;;;;;-144.31;100.00;58022.63;5033448;28;20065;-57
2023/01/17 08:07:31;;;;;;;12.43;6.38;;;;;;;-144.31;100.00;58022.63;5033135;28;20044;-58
2023/01/17 08:10:16;;;;;;;13.23;5.97;;;;;;;-144.31;100.00;58022.63;5031281;28;20398;-58
2023/01/17 08:13:02;;;;;;;11.82;6.03;;;;;;;-144.31;100.00;58022.63;5032045;28;20117;-59
2023/01/17 08:15:49;;;;;;;11.93;5.00;;;;;;;-144.31;100.00;58022.63;5032068;28;20065;-59
2023/01/17 08:18:33;;;;;;;11.73;5.95;;;;;;;-144.31;100.00;58022.63;5032948;28;20429;-64
2023/01/17 08:20:59;;;;;;;20.23;6.40;;;;;;;-144.31;100.00;58022.63;5030222;28;20047;-58
2023/01/17 08:23:41;;;;;;;16.35;6.22;;;;;;;-144.31;100.00;58022.63;5032548;28;20132;-57
2023/01/17 08:26:08;;;;;;;13.05;5.85;;;;;;;-144.31;100.00;58022.63;5030799;28;20044;-64
2023/01/17 08:28:54;;;;;;;16.48;6.00;;;;;;;-144.31;100.00;58022.63;5034558;28;20050;-65
2023/01/17 08:31:40;;;;;;;12.73;5.68;;;;;;;-144.31;100.00;58022.63;5032136;28;20052;-60
2023/01/17 08:34:17;;;;;;;10.73;4.80;;;;;;;-144.31;100.00;58022.63;5038153;28;20047;-59
2023/01/17 08:36:52;;;;;;;13.50;5.70;;;;;;;-144.31;100.00;58022.63;5032493;28;20051;-62
2023/01/17 08:39:39;;;;;;;13.50;6.03;;;;;;;-144.31;100.00;58022.63;5033021;28;20068;-58
2023/01/17 08:42:25;;;;;;;9.70;5.20;;;;;;;-144.31;100.00;58022.63;5033447;28;20500;-64
2023/01/17 08:45:11;;;;;;;14.68;5.70;;;;;;;-144.31;100.00;58022.63;5034132;28;20045;-59
2023/01/17 08:47:58;;;;;;;12.30;5.20;;;;;;;-144.31;100.00;58022.63;5031808;28;20059;-61
2023/01/17 08:51:12;;;;;;;19.27;7.75;;;;;;;-144.31;100.00;58022.63;5034642;28;20414;-56
2023/01/17 08:54:29;;;;;;;33.20;13.48;;;;;;;-144.31;100.00;58022.63;5034684;28;20110;-61
2023/01/17 08:57:39;;;;;;;33.60;13.82;;;;;;;-144.31;100.00;58022.63;5034125;28;20486;-58
2023/01/17 09:01:04;;;;;;;40.00;15.45;;;;;;;-144.31;100.00;58022.63;5032064;28;20148;-65
2023/01/17 09:04:25;;;;;;;41.90;14.80;;;;;;;-144.31;100.00;58022.63;5034439;28;20033;-56
2023/01/17 09:07:40;;;;;;;33.15;18.23;;;;;;;-144.31;100.00;58022.63;5035143;28;20106;-57
2023/01/17 09:10:43;;;;;;;33.88;18.90;;;;;;;-144.31;100.00;58022.63;5032968;28;20034;-57
2023/01/17 09:14:06;;;;;;;25.42;13.32;;;;;;;-144.31;100.00;58022.63;5032817;28;20047;-55
2023/01/17 09:17:15;;;;;;;17.33;9.07;;;;;;;-144.31;100.00;58022.63;5036728;28;20049;-57
2023/01/17 09:20:15;;;;;;;17.35;7.03;;;;;;;-144.31;100.00;58022.63;5033771;28;20120;-59
2023/01/17 09:23:39;;;;;;;15.00;6.28;;;;;;;-144.31;100.00;58022.63;5035435;28;20132;-60
2023/01/17 09:27:03;;;;;;;13.05;6.47;;;;;;;-144.31;100.00;58022.63;5034140;28;20145;-56
2023/01/17 09:30:27;;;;;;;12.82;6.25;;;;;;;-144.31;100.00;58022.63;5033327;28;20056;-58
2023/01/17 09:33:52;;;;;;;15.20;5.85;;;;;;;-144.31;100.00;58022.63;5031608;28;20107;-59
2023/01/17 09:37:16;;;;;;;16.60;8.18;;;;;;;-144.31;100.00;58022.63;5032958;28;20034;-57
2023/01/17 09:40:44;;;;;;;17.40;6.68;;;;;;;-144.31;100.00;58022.63;5035758;28;20040;-54
2023/01/17 09:44:28;;;;;;;19.50;7.78;;;;;;;-144.31;100.00;58022.63;5032352;28;20044;-59
2023/01/17 09:47:54;;;;;;;16.02;6.15;;;;;;;-144.31;100.00;58022.63;5029509;28;20059;-57
2023/01/17 09:51:23;;;;;;;11.00;4.85;;;;;;;-144.31;100.00;58022.63;5040316;28;20048;-58
2023/01/17 09:54:48;;;;;;;8.98;4.20;;;;;;;-144.31;100.00;58022.63;5033508;28;20037;-56
2023/01/17 09:58:30;;;;;;;7.25;3.67;;;;;;;-144.31;100.00;58022.63;5033608;28;20046;-56
2023/01/17 10:02:25;;;;;;;7.10;3.03;;;;;;;-144.31;100.00;58022.63;5032799;28;20126;-58
2023/01/17 10:06:08;;;;;;;4.25;2.50;;;;;;;-144.31;100.00;58022.63;5033724;28;20044;-58
2023/01/17 10:09:33;;;;;;;5.13;1.88;;;;;;;-144.31;100.00;58022.63;5033892;28;20045;-60
2023/01/17 10:13:27;;;;;;;8.32;1.60;;;;;;;-144.31;100.00;58022.63;5037548;28;20072;-60
2023/01/17 10:17:04;;;;;;;3.33;1.70;;;;;;;-144.31;100.00;58022.63;5032487;28;20061;-59
2023/01/17 10:20:34;;;;;;;3.50;1.75;;;;;;;-144.31;100.00;58022.63;5031951;28;20049;-58
2023/01/17 10:23:58;;;;;;;2.65;1.90;;;;;;;-144.31;100.00;58022.63;5032353;28;20176;-56
2023/01/17 10:27:41;;;;;;;4.03;1.80;;;;;;;-144.31;100.00;58022.63;5035134;28;20506;-59
2023/01/17 10:31:21;;;;;;;2.17;1.30;;;;;;;-144.31;100.00;58022.63;5031610;28;20083;-56
2023/01/17 10:34:50;;;;;;;2.13;1.50;;;;;;;-144.31;100.00;58022.63;5035408;28;20040;-57
2023/01/17 10:38:31;;;;;;;3.58;1.65;;;;;;;-144.31;100.00;58022.63;5034021;28;20048;-55
2023/01/17 10:42:05;;;;;;;4.47;2.20;;;;;;;-144.31;100.00;58022.63;5039577;28;20064;-56
2023/01/17 10:45:33;;;;;;;4.07;1.50;;;;;;;-144.31;100.00;58022.63;5030809;28;20037;-57
2023/01/17 10:49:20;;;;;;;3.38;1.70;;;;;;;-144.31;100.00;58022.63;5032422;28;20041;-52
2023/01/17 10:53:21;;;;;;;3.05;1.60;;;;;;;-144.31;100.00;58022.63;5029648;28;20036;-55
2023/01/17 10:56:47;;;;;;;4.53;2.05;;;;;;;-144.31;100.00;58022.63;5032056;28;20314;-56
2023/01/17 11:00:42;;;;;;;5.17;2.20;;;;;;;-144.31;100.00;58022.63;5030910;28;20064;-58
2023/01/17 11:04:17;;;;;;;2.65;1.60;;;;;;;-144.31;100.00;58022.63;5030603;28;20277;-58
2023/01/17 11:07:55;;;;;;;2.95;1.70;;;;;;;-144.31;100.00;58022.63;5033193;28;20045;-57
2023/01/17 11:11:47;;;;;;;5.13;2.30;;;;;;;-144.31;100.00;58022.63;5033619;28;20044;-58
2023/01/17 11:15:21;;;;;;;6.00;2.10;;;;;;;-144.31;100.00;58022.63;5032636;28;20048;-58
2023/01/17 11:19:04;;;;;;;4.35;1.80;;;;;;;-144.31;100.00;58022.63;5035228;28;20051;-54
2023/01/17 11:22:29;;;;;;;3.67;1.40;;;;;;;-144.31;100.00;58022.63;5031101;28;20120;-57
2023/01/17 11:25:56;;;;;;;7.72;2.70;;;;;;;-144.31;100.00;58022.63;5034178;28;20072;-55
2023/01/17 11:29:37;;;;;;;2.88;1.70;;;;;;;-144.31;100.00;58022.63;5029393;28;20761;-56
2023/01/17 11:33:34;;;;;;;16.23;9.48;;;;;;;-144.31;100.00;58022.63;5031359;28;20072;-58
2023/01/17 11:37:09;;;;;;;7.30;4.25;;;;;;;-144.31;100.00;58022.63;5024126;28;20053;-57
2023/01/17 11:40:39;;;;;;;4.75;1.85;;;;;;;-144.31;100.00;58022.63;5031419;28;20049;-60
2023/01/17 11:44:19;;;;;;;3.22;1.63;;;;;;;-144.31;100.00;58022.63;5031678;28;20041;-58
2023/01/17 11:47:43;;;;;;;2.38;1.30;;;;;;;-144.31;100.00;58022.63;5029622;28;20128;-59
2023/01/17 11:51:37;;;;;;;3.08;1.60;;;;;;;-144.31;100.00;58022.63;5032160;28;20844;-58
2023/01/17 11:55:14;;;;;;;3.70;1.67;;;;;;;-144.31;100.00;58022.63;5031368;28;20046;-59
2023/01/17 11:58:41;;;;;;;2.05;1.30;;;;;;;-144.31;100.00;58022.63;5031685;28;20046;-61
2023/01/17 12:02:52;;;;;;;4.68;1.50;;;;;;;-144.31;100.00;58022.63;5030506;28;20548;-56
2023/01/17 12:06:37;;;;;;;5.35;2.30;;;;;;;-144.31;100.00;58022.63;5028184;28;20060;-56
2023/01/17 12:10:41;;;;;;;2.63;1.38;;;;;;;-144.31;100.00;58022.63;5036245;28;20501;-55
2023/01/17 12:14:15;;;;;;;2.20;1.42;;;;;;;-144.31;100.00;58022.63;5044416;28;20087;-56
2023/01/17 12:17:57;;;;;;;6.18;1.80;;;;;;;-144.31;100.00;58022.63;5035467;28;20156;-55
2023/01/17 12:21:21;;;;;;;4.22;1.77;;;;;;;-144.31;100.00;58022.63;5033357;28;20429;-56
2023/01/17 12:24:45;;;;;;;2.58;1.27;;;;;;;-144.31;100.00;58022.63;5038340;28;20029;-58
2023/01/17 12:28:43;;;;;;;3.30;1.50;;;;;;;-144.31;100.00;58022.63;5034635;28;20444;-58
2023/01/17 12:32:35;;;;;;;3.40;1.50;;;;;;;-144.31;100.00;58022.63;5036081;28;20454;-56
2023/01/17 12:36:16;;;;;;;3.17;1.60;;;;;;;-144.31;100.00;58022.63;5035346;28;20041;-61
2023/01/17 12:39:44;;;;;;;2.67;1.60;;;;;;;-144.31;100.00;58022.63;5036004;28;20052;-57
2023/01/17 12:43:20;;;;;;;4.40;1.90;;;;;;;-144.31;100.00;58022.63;5032256;28;20038;-56
2023/01/17 12:46:49;;;;;;;3.80;1.60;;;;;;;-144.31;100.00;58022.63;5037217;28;20132;-59
2023/01/17 12:50:31;;;;;;;3.72;1.48;;;;;;;-144.31;100.00;58022.63;5033998;28;20073;-60
2023/01/17 12:54:27;;;;;;;4.22;1.70;;;;;;;-144.31;100.00;58022.63;5035455;28;20037;-58
2023/01/17 12:57:56;;;;;;;1.77;1.25;;;;;;;-144.31;100.00;58022.63;5033919;28;20072;-58
2023/01/17 13:01:21;;;;;;;3.22;1.65;;;;;;;-144.31;100.00;58022.63;5033444;28;20033;-54
2023/01/17 13:04:57;;;;;;;8.35;2.45;;;;;;;-144.31;100.00;58022.63;5034555;28;20239;-56
2023/01/17 13:07:41;;;;;;;2.42;1.50;;;;;;;-144.31;100.00;58022.63;5037202;28;20036;-58
2023/01/17 13:10:19;;;;;;;6.50;1.60;;;;;;;-144.31;100.00;58022.63;5035079;28;20039;-58
2023/01/17 13:12:47;;;;;;;4.70;1.67;;;;;;;-144.31;100.00;58022.63;5032999;28;20053;-53
2023/01/17 13:15:18;;;;;;;4.95;2.50;;;;;;;-144.31;100.00;58022.63;5035638;28;20553;-58
2023/01/17 13:17:45;;;;;;;5.15;1.90;;;;;;;-144.31;100.00;58022.63;5035968;28;20088;-52
2023/01/17 13:20:37;;;;;;;9.32;4.57;;;;;;;-144.31;100.00;58022.63;5034857;28;20041;-57
2023/01/17 13:23:44;;;;;;;2.50;1.58;;;;;;;-144.31;100.00;58022.63;5035778;28;20045;-53
2023/01/17 13:26:40;;;;;;;2.80;1.80;;;;;;;-144.31;100.00;58022.63;5036119;28;20042;-52
2023/01/17 13:29:23;;;;;;;6.65;2.50;;;;;;;-144.31;100.00;58022.63;5039560;28;20133;-54
2023/01/17 13:32:26;;;;;;;4.80;2.40;;;;;;;-144.31;100.00;58022.63;5028935;28;20517;-54
2023/01/17 13:35:41;;;;;;;7.97;3.10;;;;;;;-144.31;100.00;58022.63;5030552;28;20056;-53
2023/01/17 13:38:41;;;;;;;5.40;2.40;;;;;;;-144.31;100.00;58022.63;5035800;28;20045;-56
2023/01/17 13:41:15;;;;;;;4.10;2.20;;;;;;;-144.31;100.00;58022.63;5037990;28;20041;-57
2023/01/17 13:44:20;;;;;;;5.82;2.17;;;;;;;-144.31;100.00;58022.63;5037436;28;20083;-55
2023/01/17 13:47:16;;;;;;;6.18;2.33;;;;;;;-144.31;100.00;58022.63;5031808;28;20367;-57
2023/01/17 13:49:43;;;;;;;3.72;1.90;;;;;;;-144.31;100.00;58022.63;5024970;28;20066;-54
2023/01/17 13:52:17;;;;;;;6.50;2.63;;;;;;;-144.31;100.00;58022.63;5034242;28;20033;-53
2023/01/17 13:54:44;;;;;;;6.70;2.42;;;;;;;-144.31;100.00;58022.63;5036904;28;20056;-53
2023/01/17 13:57:24;;;;;;;6.18;2.40;;;;;;;-144.31;100.00;58022.63;5031195;28;20056;-56
2023/01/17 13:59:50;;;;;;;4.60;2.33;;;;;;;-144.31;100.00;58022.63;5032129;28;20120;-55
2023/01/17 14:02:31;;;;;;;5.88;2.20;;;;;;;-144.31;100.00;58022.63;5036991;28;20051;-56
2023/01/17 14:05:20;;;;;;;10.50;4.75;;;;;;;-144.31;100.00;58022.63;5039125;28;20087;-57
2023/01/17 14:07:53;;;;;;;8.23;3.00;;;;;;;-144.31;100.00;58022.63;5035096;28;20037;-54
2023/01/17 14:10:31;;;;;;;6.32;2.47;;;;;;;-144.31;100.00;58022.63;5041214;28;20044;-56
2023/01/17 14:12:57;;;;;;;9.27;4.32;;;;;;;-144.31;100.00;58022.63;5033955;28;20043;-57
2023/01/17 14:15:28;;;;;;;8.20;3.65;;;;;;;-144.31;100.00;58022.63;5036495;28;20470;-55
2023/01/17 14:17:57;;;;;;;6.30;3.00;;;;;;;-144.31;100.00;58022.63;5034168;28;20056;-53
2023/01/17 14:20:26;;;;;;;6.18;3.13;;;;;;;-144.31;100.00;58022.63;5036454;28;20038;-56
2023/01/17 14:22:59;;;;;;;7.32;2.90;;;;;;;-144.31;100.00;58022.63;5032671;28;20486;-54
2023/01/17 14:25:28;;;;;;;7.88;2.90;;;;;;;-144.31;100.00;58022.63;5032822;28;20030;-55
2023/01/17 14:28:05;;;;;;;6.30;2.55;;;;;;;-144.31;100.00;58022.63;5035630;28;20639;-57
2023/01/17 14:30:30;;;;;;;7.47;2.85;;;;;;;-144.31;100.00;58022.63;5033334;28;20049;-56
2023/01/17 14:33:01;;;;;;;6.82;3.10;;;;;;;-144.31;100.00;58022.63;5034525;28;20037;-53
2023/01/17 14:35:30;;;;;;;8.20;3.28;;;;;;;-144.31;100.00;58022.63;5034894;28;20061;-56
2023/01/17 14:38:04;;;;;;;7.60;3.30;;;;;;;-144.31;100.00;58022.63;5034241;28;20124;-57
2023/01/17 14:40:37;;;;;;;7.72;3.58;;;;;;;-144.31;100.00;58022.63;5035034;28;20065;-57
2023/01/17 14:43:11;;;;;;;10.55;3.92;;;;;;;-144.31;100.00;58022.63;5037087;28;20497;-54
2023/01/17 14:45:37;;;;;;;10.10;3.85;;;;;;;-144.31;100.00;58022.63;5033018;28;20045;-55
2023/01/17 14:48:12;;;;;;;8.80;3.72;;;;;;;-144.31;100.00;58022.63;5034361;28;20438;-57
2023/01/17 14:50:40;;;;;;;7.72;3.25;;;;;;;-144.31;100.00;58022.63;5033891;28;20063;-58
2023/01/17 14:53:14;;;;;;;8.77;3.83;;;;;;;-144.31;100.00;58022.63;5033253;28;20043;-59
2023/01/17 14:55:55;;;;;;;8.50;4.00;;;;;;;-144.31;100.00;58022.63;5036572;28;20064;-59
2023/01/17 14:58:41;;;;;;;10.30;4.35;;;;;;;-144.31;100.00;58022.63;5035132;28;20151;-54
2023/01/17 15:01:19;;;;;;;10.68;4.50;;;;;;;-144.31;100.00;58022.63;5035397;28;20065;-56
2023/01/17 15:03:55;;;;;;;21.63;8.05;;;;;;;-144.31;100.00;58022.63;5032984;28;20041;-57
2023/01/17 15:06:26;;;;;;;16.17;5.88;;;;;;;-144.31;100.00;58022.63;5035678;28;20040;-57
2023/01/17 15:08:54;;;;;;;9.75;5.13;;;;;;;-144.31;100.00;58022.63;5033452;28;20042;-55
2023/01/17 15:11:32;;;;;;;15.02;5.93;;;;;;;-144.31;100.00;58022.63;5032188;28;20457;-56
2023/01/17 15:14:04;;;;;;;15.13;6.82;;;;;;;-144.31;100.00;58022.63;5032943;28;20038;-56